createdAt,value
2019-02-19T00:01:22.011Z,74.93
2019-02-19T00:03:52.375Z,81.77
2019-02-19T00:06:22.948Z,91.03
2019-02-19T00:08:54.121Z,73.73
2019-02-19T00:11:24.727Z,71.13
2019-02-19T00:13:55.221Z,73.07
2019-02-19T00:16:25.659Z,77.47
2019-02-19T00:18:56.283Z,72.50
2019-02-19T00:21:26.877Z,73.73
2019-02-19T00:23:57.726Z,70.10
2019-02-19T00:26:28.089Z,68.20
2019-02-19T00:28:58.735Z,70.57
2019-02-19T00:31:29.035Z,68.30
2019-02-19T00:33:59.732Z,62.30
2019-02-19T00:36:30.391Z,66.43
2019-02-19T00:39:00.781Z,61.27
2019-02-19T00:41:34.485Z,60.77
2019-02-19T00:44:05.232Z,66.73
2019-02-19T00:46:35.643Z,70.77
2019-02-19T00:49:06.052Z,64.80
2019-02-19T00:51:36.703Z,67.03
2019-02-19T00:54:07.032Z,64.70
2019-02-19T00:56:37.663Z,74.20
2019-02-19T00:59:08.061Z,71.23
2019-02-19T01:01:38.647Z,72.00
2019-02-19T01:04:09.043Z,86.40
2019-02-19T01:06:39.756Z,73.70
2019-02-19T01:09:10.299Z,74.90
2019-02-19T01:11:41.099Z,74.63
2019-02-19T01:14:11.423Z,82.37
2019-02-19T01:16:43.200Z,86.97
2019-02-19T01:19:13.551Z,86.33
2019-02-19T01:21:44.239Z,85.17
2019-02-19T01:24:14.599Z,90.70
2019-02-19T01:26:46.714Z,100.33
2019-02-19T01:35:41.708Z,83.10
2019-02-19T01:38:12.218Z,82.17
2019-02-19T01:40:42.805Z,85.37
2019-02-19T01:43:13.159Z,85.03
2019-02-19T01:45:43.571Z,95.60
2019-02-19T01:48:14.165Z,94.00
2019-02-19T01:50:44.923Z,98.50
2019-02-19T01:53:15.435Z,83.77
2019-02-19T01:55:45.892Z,98.60
2019-02-19T01:58:16.503Z,89.27
2019-02-19T02:00:46.807Z,94.33
2019-02-19T02:03:17.251Z,86.23
2019-02-19T02:05:47.671Z,100.70
2019-02-19T02:08:18.100Z,90.20
2019-02-19T02:10:48.562Z,101.57
2019-02-19T02:13:18.935Z,91.63
2019-02-19T02:15:49.347Z,93.90
2019-02-19T02:18:19.686Z,91.77
2019-02-19T02:20:50.115Z,104.63
2019-02-19T02:23:20.720Z,130.23
2019-02-19T02:25:51.146Z,82.90
2019-02-19T02:28:21.522Z,99.93
2019-02-19T02:30:52.175Z,93.80
2019-02-19T02:33:22.469Z,94.57
2019-02-19T02:35:53.256Z,125.07
2019-02-19T02:38:23.767Z,88.37
2019-02-19T02:40:55.128Z,84.43
2019-02-19T02:43:25.509Z,73.33
2019-02-19T02:45:55.950Z,77.83
2019-02-19T02:48:26.388Z,97.80
2019-02-19T02:50:56.796Z,79.30
2019-02-19T02:53:27.587Z,90.90
2019-02-19T02:55:57.924Z,77.07
2019-02-19T02:58:28.500Z,87.20
2019-02-19T03:03:55.304Z,90.37
2019-02-19T03:09:48.668Z,126.27
2019-02-19T03:12:19.322Z,128.83
2019-02-19T03:14:49.735Z,117.17
2019-02-19T03:17:20.098Z,101.67
2019-02-19T03:19:50.616Z,112.23
2019-02-19T03:22:21.115Z,128.70
2019-02-19T03:24:51.545Z,103.93
2019-02-19T03:27:22.079Z,88.63
2019-02-19T03:29:52.412Z,92.07
2019-02-19T03:32:22.760Z,106.20
2019-02-19T03:34:53.663Z,107.23
2019-02-19T03:37:24.079Z,109.73
2019-02-19T03:39:54.407Z,89.03
2019-02-19T03:42:24.800Z,87.33
2019-02-19T03:44:55.247Z,109.13
2019-02-19T03:47:25.631Z,107.43
2019-02-19T03:49:56.376Z,92.20
2019-02-19T03:52:26.731Z,89.30
2019-02-19T03:54:57.395Z,95.87
2019-02-19T03:57:27.739Z,94.37
2019-02-19T03:59:58.316Z,90.37
2019-02-19T04:02:29.740Z,107.10
2019-02-19T04:05:00.385Z,93.10
2019-02-19T04:07:30.792Z,99.47
2019-02-19T04:10:01.314Z,99.37
2019-02-19T04:12:31.695Z,95.73
2019-02-19T04:15:02.287Z,116.90
2019-02-19T04:17:32.687Z,106.33
2019-02-19T04:20:03.395Z,89.43
2019-02-19T04:22:33.787Z,93.47
2019-02-19T04:25:04.331Z,97.20
2019-02-19T04:27:34.811Z,84.03
2019-02-19T04:30:05.559Z,71.03
2019-02-19T04:32:35.868Z,84.80
2019-02-19T04:35:06.553Z,81.30
2019-02-19T04:37:37.033Z,79.70
2019-02-19T04:40:07.568Z,71.93
2019-02-19T04:42:37.995Z,87.03
2019-02-19T04:45:08.427Z,84.50
2019-02-19T04:47:38.935Z,76.13
2019-02-19T04:50:09.483Z,72.53
2019-02-19T04:52:40.247Z,90.77
2019-02-19T04:55:10.614Z,72.37
2019-02-19T04:57:41.139Z,83.80
2019-02-19T05:00:13.299Z,70.03
2019-02-19T05:02:43.912Z,74.20
2019-02-19T05:05:14.357Z,84.70
2019-02-19T05:07:44.826Z,73.53
2019-02-19T05:10:15.655Z,67.73
2019-02-19T05:12:46.196Z,63.37
2019-02-19T05:15:16.787Z,67.70
2019-02-19T05:17:47.336Z,63.37
2019-02-19T05:20:18.140Z,74.57
2019-02-19T05:22:48.603Z,72.10
2019-02-19T05:25:19.523Z,67.10
2019-02-19T05:27:50.006Z,66.90
2019-02-19T05:30:20.337Z,70.00
2019-02-19T05:32:50.932Z,64.83
2019-02-19T05:35:21.475Z,66.37
2019-02-19T05:37:54.364Z,73.53
2019-02-19T05:40:27.338Z,69.90
2019-02-19T05:42:58.694Z,69.30
2019-02-19T05:45:29.199Z,73.80
2019-02-19T05:47:59.883Z,74.53
2019-02-19T05:50:30.229Z,77.50
2019-02-19T05:53:00.632Z,71.10
2019-02-19T05:55:34.256Z,74.83
2019-02-19T05:58:04.940Z,79.93
2019-02-19T06:00:35.680Z,71.93
2019-02-19T06:03:06.239Z,71.30
2019-02-19T06:05:36.809Z,74.60
2019-02-19T06:08:07.235Z,70.53
2019-02-19T06:10:37.495Z,64.57
2019-02-19T06:13:07.981Z,65.97
2019-02-19T06:15:38.823Z,73.00
2019-02-19T06:18:09.392Z,76.40
2019-02-19T06:20:39.981Z,65.67
2019-02-19T06:23:10.709Z,63.30
2019-02-19T06:25:41.168Z,63.63
2019-02-19T06:28:11.821Z,65.83
2019-02-19T06:30:42.250Z,60.10
2019-02-19T06:33:12.836Z,63.40
2019-02-19T06:35:45.614Z,62.80
2019-02-19T06:38:16.306Z,58.47
2019-02-19T06:40:48.387Z,59.40
2019-02-19T06:43:19.360Z,60.03
2019-02-19T06:45:49.963Z,58.03
2019-02-19T06:48:20.518Z,63.30
2019-02-19T06:50:51.079Z,54.67
2019-02-19T06:53:21.564Z,53.30
2019-02-19T06:55:52.381Z,56.90
2019-02-19T06:58:22.715Z,51.23
2019-02-19T07:00:54.157Z,53.63
2019-02-19T07:03:34.891Z,54.93
2019-02-19T07:06:05.467Z,61.30
2019-02-19T07:08:35.911Z,50.77
2019-02-19T07:11:08.502Z,46.57
2019-02-19T07:13:39.087Z,55.83
2019-02-19T07:16:09.458Z,52.83
2019-02-19T07:18:40.113Z,55.87
2019-02-19T07:21:10.551Z,46.30
2019-02-19T07:23:40.959Z,52.20
2019-02-19T07:26:11.523Z,50.23
2019-02-19T07:28:43.375Z,55.80
2019-02-19T07:31:13.732Z,46.17
2019-02-19T07:33:44.303Z,49.97
2019-02-19T07:36:14.864Z,49.80
2019-02-19T07:38:45.547Z,49.73
2019-02-19T07:41:15.968Z,46.80
2019-02-19T07:43:46.663Z,42.27
2019-02-19T07:46:17.079Z,50.60
2019-02-19T07:48:47.663Z,45.40
2019-02-19T07:51:18.207Z,48.93
2019-02-19T07:53:48.879Z,36.60
2019-02-19T07:56:19.602Z,40.97
2019-02-19T07:58:50.206Z,43.17
2019-02-19T08:01:21.165Z,39.17
2019-02-19T08:03:51.531Z,34.80
2019-02-19T08:06:22.284Z,42.53
2019-02-19T08:08:52.892Z,39.87
2019-02-19T08:11:26.257Z,37.57
2019-02-19T08:13:56.911Z,40.23
2019-02-19T08:16:27.294Z,39.10
2019-02-19T08:18:57.756Z,38.67
2019-02-19T08:21:28.160Z,34.03
2019-02-19T08:23:58.514Z,43.10
2019-02-19T08:26:29.021Z,37.47
2019-02-19T08:29:11.493Z,36.03
2019-02-19T08:31:34.729Z,32.80
2019-02-19T08:34:05.215Z,38.00
2019-02-19T08:36:35.643Z,30.33
2019-02-19T08:39:06.384Z,35.33
2019-02-19T08:41:36.991Z,32.40
2019-02-19T08:44:08.503Z,31.23
2019-02-19T08:46:39.288Z,29.03
2019-02-19T08:49:09.595Z,31.53
2019-02-19T08:51:40.127Z,29.37
2019-02-19T08:54:11.697Z,30.83
2019-02-19T08:56:42.532Z,32.83
2019-02-19T08:59:13.166Z,33.47
2019-02-19T09:01:43.748Z,36.23
2019-02-19T09:04:14.212Z,36.77
2019-02-19T09:06:44.567Z,31.90
2019-02-19T09:09:15.300Z,44.00
2019-02-19T09:11:45.732Z,34.50
2019-02-19T09:14:16.227Z,31.37
2019-02-19T09:16:46.859Z,36.40
2019-02-19T09:19:17.199Z,39.77
2019-02-19T09:21:47.548Z,34.47
2019-02-19T09:24:18.043Z,39.33
2019-02-19T09:26:48.515Z,35.87
2019-02-19T09:29:19.099Z,37.43
2019-02-19T09:31:49.635Z,41.00
2019-02-19T09:34:20.159Z,36.80
2019-02-19T09:36:56.767Z,32.97
2019-02-19T09:39:29.990Z,35.37
2019-02-19T09:42:00.499Z,38.83
2019-02-19T09:44:31.087Z,38.30
2019-02-19T09:47:02.035Z,37.33
2019-02-19T09:49:32.371Z,35.80
2019-02-19T09:52:02.723Z,29.10
2019-02-19T09:54:33.391Z,41.23
2019-02-19T09:57:03.840Z,39.00
2019-02-19T09:59:34.619Z,36.20
2019-02-19T10:02:05.321Z,33.23
2019-02-19T10:04:35.706Z,33.30
2019-02-19T10:07:06.357Z,36.37
2019-02-19T10:09:37.952Z,33.87
2019-02-19T10:12:08.320Z,43.87
2019-02-19T10:14:39.203Z,34.50
2019-02-19T10:17:09.911Z,28.13
2019-02-19T10:19:40.327Z,35.63
2019-02-19T10:22:10.738Z,36.27
2019-02-19T10:24:41.180Z,33.50
2019-02-19T10:27:11.590Z,35.93
2019-02-19T10:29:42.448Z,38.90
2019-02-19T10:32:13.011Z,38.93
2019-02-19T10:34:43.595Z,32.20
2019-02-19T10:37:15.952Z,37.57
2019-02-19T10:39:46.639Z,30.40
2019-02-19T10:42:16.986Z,22.63
2019-02-19T10:44:49.156Z,29.60
2019-02-19T10:47:19.611Z,28.63
2019-02-19T10:49:50.244Z,26.00
2019-02-19T10:52:20.563Z,26.67
2019-02-19T10:54:51.438Z,22.50
2019-02-19T10:57:22.006Z,16.43
2019-02-19T10:59:52.694Z,16.10
2019-02-19T11:02:23.259Z,13.30
2019-02-19T11:04:53.779Z,9.57
2019-02-19T11:07:24.343Z,10.50
2019-02-19T11:09:54.643Z,9.00
2019-02-19T11:12:25.221Z,5.03
2019-02-19T11:14:55.707Z,4.63
2019-02-19T11:17:26.616Z,7.10
2019-02-19T11:19:57.061Z,8.37
2019-02-19T11:22:27.627Z,6.33
2019-02-19T11:24:58.283Z,3.50
2019-02-19T11:27:28.960Z,2.80
2019-02-19T11:29:59.726Z,5.50
2019-02-19T11:32:30.573Z,4.33
2019-02-19T11:35:01.167Z,4.43
2019-02-19T11:37:32.437Z,7.05
2019-02-19T11:40:03.101Z,5.40
2019-02-19T11:42:34.419Z,5.47
2019-02-19T11:45:05.071Z,5.93
2019-02-19T11:47:36.153Z,5.20
2019-02-19T11:50:06.791Z,9.50
2019-02-19T11:52:37.589Z,6.43
2019-02-19T11:55:09.129Z,9.77
2019-02-19T11:57:39.899Z,7.37
2019-02-19T12:00:13.553Z,9.93
2019-02-19T12:02:45.481Z,7.67
2019-02-19T12:05:16.127Z,8.53
2019-02-19T12:07:46.923Z,7.87
2019-02-19T12:10:17.763Z,8.57
2019-02-19T12:12:48.878Z,10.33
2019-02-19T12:15:19.565Z,8.43
2019-02-19T12:17:50.451Z,9.27
2019-02-19T12:20:20.786Z,8.77
2019-02-19T12:22:51.371Z,8.37
2019-02-19T12:25:21.824Z,5.97
2019-02-19T12:27:52.536Z,9.30
2019-02-19T12:30:23.203Z,7.43
2019-02-19T12:32:53.919Z,7.77
2019-02-19T12:35:24.615Z,8.17
2019-02-19T12:37:55.110Z,7.47
2019-02-19T12:40:25.678Z,8.07
2019-02-19T12:42:56.647Z,9.67
2019-02-19T12:45:30.111Z,11.10
2019-02-19T12:48:00.760Z,10.73
2019-02-19T12:50:31.274Z,9.57
2019-02-19T12:53:02.167Z,8.50
2019-02-19T12:55:32.808Z,8.10
2019-02-19T12:58:06.764Z,7.77
2019-02-19T13:00:37.543Z,8.13
2019-02-19T13:03:11.897Z,10.17
2019-02-19T13:05:42.494Z,6.63
2019-02-19T13:08:13.216Z,13.77
2019-02-19T13:10:44.246Z,12.33
2019-02-19T13:13:14.839Z,14.40
2019-02-19T13:15:45.304Z,11.40
2019-02-19T13:18:15.955Z,10.07
2019-02-19T13:20:46.419Z,13.83
2019-02-19T13:23:16.919Z,13.10
2019-02-19T13:25:48.419Z,15.00
2019-02-19T13:28:19.210Z,11.43
2019-02-19T13:30:49.609Z,13.17
2019-02-19T13:33:20.483Z,11.83
2019-02-19T13:35:51.036Z,11.67
2019-02-19T13:38:21.486Z,16.17
2019-02-19T13:40:53.196Z,10.83
2019-02-19T13:43:23.715Z,13.13
2019-02-19T13:45:54.568Z,10.17
2019-02-19T13:48:24.991Z,13.60
2019-02-19T13:50:55.775Z,11.73
2019-02-19T13:53:51.048Z,13.43
2019-02-19T13:56:21.899Z,16.00
2019-02-19T13:58:52.288Z,14.60
2019-02-19T14:01:22.775Z,14.73
2019-02-19T14:03:53.503Z,15.60
2019-02-19T14:06:24.001Z,14.13
2019-02-19T14:08:54.543Z,13.50
2019-02-19T14:11:25.271Z,11.10
2019-02-19T14:14:20.728Z,16.53
2019-02-19T14:16:55.149Z,15.80
2019-02-19T14:19:44.581Z,16.53
2019-02-19T14:22:32.412Z,13.30
2019-02-19T14:25:24.815Z,14.23
2019-02-19T14:28:12.687Z,14.60
2019-02-19T14:31:17.664Z,15.37
2019-02-19T14:34:01.573Z,14.70
2019-02-19T14:36:49.688Z,13.40
2019-02-19T14:39:45.259Z,15.37
2019-02-19T14:42:30.659Z,17.30
2019-02-19T14:45:08.768Z,15.63
2019-02-19T14:47:56.799Z,16.00
2019-02-19T14:50:44.679Z,15.80
2019-02-19T14:53:32.686Z,18.77
2019-02-19T14:56:24.991Z,21.13
2019-02-19T14:59:17.256Z,13.80
2019-02-19T15:02:05.015Z,15.03
2019-02-19T15:05:12.681Z,19.13
2019-02-19T15:07:56.257Z,17.13
2019-02-19T15:10:43.823Z,21.53
2019-02-19T15:13:25.174Z,18.27
2019-02-19T15:16:26.855Z,13.47
2019-02-19T15:19:19.911Z,16.77
2019-02-19T15:22:05.437Z,19.03
2019-02-19T15:25:00.723Z,19.93
2019-02-19T15:28:08.256Z,17.60
2019-02-19T15:30:57.569Z,16.73
2019-02-19T15:33:46.876Z,17.47
2019-02-19T15:36:49.391Z,21.10
2019-02-19T15:39:56.823Z,18.40
2019-02-19T15:42:46.148Z,13.70
2019-02-19T15:45:41.738Z,19.33
2019-02-19T15:48:34.833Z,18.47
2019-02-19T15:51:33.999Z,22.33
2019-02-19T15:54:21.972Z,23.07
2019-02-19T15:57:08.936Z,23.43
2019-02-19T16:00:01.333Z,22.97
2019-02-19T16:02:48.776Z,21.60
2019-02-19T16:05:50.575Z,19.57
2019-02-19T16:08:55.403Z,17.67
2019-02-19T16:11:46.935Z,18.93
2019-02-19T16:14:35.278Z,20.50
2019-02-19T16:17:31.009Z,15.77
2019-02-19T16:20:10.439Z,17.70
2019-02-19T16:22:58.613Z,15.70
2019-02-19T16:25:56.482Z,16.53
2019-02-19T16:28:41.683Z,18.67
2019-02-19T16:31:49.304Z,22.77
2019-02-19T16:34:44.431Z,20.93
2019-02-19T16:37:31.667Z,19.83
2019-02-19T16:40:19.691Z,15.07
2019-02-19T16:43:08.320Z,16.03
2019-02-19T16:45:56.223Z,15.67
2019-02-19T16:48:44.403Z,17.20
2019-02-19T16:51:30.992Z,19.03
2019-02-19T16:54:26.528Z,16.60
2019-02-19T16:57:05.927Z,22.63
2019-02-19T16:59:58.387Z,18.83
2019-02-19T17:02:50.688Z,17.30
2019-02-19T17:05:36.891Z,16.23
2019-02-19T17:08:32.223Z,17.87
2019-02-19T17:11:24.880Z,14.57
2019-02-19T17:14:32.604Z,15.60
2019-02-19T17:17:08.894Z,16.17
2019-02-19T17:20:21.060Z,14.57
2019-02-19T17:22:58.213Z,18.60
2019-02-19T17:25:41.388Z,16.83
2019-02-19T17:28:31.081Z,23.53
2019-02-19T17:31:26.207Z,25.07
2019-02-19T17:34:15.531Z,17.10
2019-02-19T17:37:05.142Z,16.33
2019-02-19T17:39:50.696Z,19.97
2019-02-19T17:42:48.259Z,21.70
2019-02-19T17:45:27.906Z,15.97
2019-02-19T17:48:09.198Z,23.10
2019-02-19T17:50:58.720Z,24.23
2019-02-19T17:53:48.153Z,16.00
2019-02-19T17:56:37.583Z,13.67
2019-02-19T17:59:26.945Z,20.70
2019-02-19T18:02:22.045Z,24.60
2019-02-19T18:05:14.427Z,24.30
2019-02-19T18:07:52.440Z,24.50
2019-02-19T18:10:47.796Z,26.70
2019-02-19T18:13:31.523Z,20.27
2019-02-19T18:16:29.511Z,28.53
2019-02-19T18:19:00.205Z,28.30
2019-02-19T18:21:30.634Z,20.93
2019-02-19T18:24:01.143Z,26.80
2019-02-19T18:26:31.526Z,24.90
2019-02-19T18:29:02.083Z,23.53
2019-02-19T18:31:32.658Z,20.77
2019-02-19T18:34:03.238Z,22.97
2019-02-19T18:36:33.624Z,28.17
2019-02-19T18:39:05.681Z,23.27
2019-02-19T18:41:37.153Z,29.37
2019-02-19T18:44:07.779Z,23.40
2019-02-19T18:46:38.471Z,26.63
2019-02-19T18:49:09.062Z,31.77
2019-02-19T18:51:39.657Z,29.40
2019-02-19T18:54:10.435Z,25.23
2019-02-19T18:56:41.272Z,29.37
2019-02-19T18:59:13.015Z,30.77
2019-02-19T19:01:43.614Z,21.17
2019-02-19T19:04:14.244Z,24.90
2019-02-19T19:06:44.587Z,29.03
2019-02-19T19:09:15.341Z,23.90
2019-02-19T19:11:47.419Z,30.33
2019-02-19T19:14:17.892Z,31.33
2019-02-19T19:16:48.443Z,28.40
2019-02-19T19:19:18.775Z,25.50
2019-02-19T19:21:49.313Z,23.33
2019-02-19T19:24:19.747Z,20.10
2019-02-19T19:26:50.328Z,27.47
2019-02-19T19:29:20.757Z,25.30
2019-02-19T19:31:51.810Z,24.57
2019-02-19T19:34:23.195Z,31.83
2019-02-19T19:36:53.932Z,28.27
2019-02-19T19:39:24.372Z,28.73
2019-02-19T19:41:58.068Z,27.60
2019-02-19T19:44:28.624Z,23.87
2019-02-19T19:47:00.435Z,22.70
2019-02-19T19:49:33.692Z,23.20
2019-02-19T19:52:04.167Z,24.60
2019-02-19T19:54:35.419Z,27.43
2019-02-19T19:57:06.240Z,26.00
2019-02-19T19:59:37.659Z,33.67
2019-02-19T20:02:09.495Z,29.33
2019-02-19T20:04:39.844Z,24.47
2019-02-19T20:07:10.663Z,25.97
2019-02-19T20:09:41.031Z,27.37
2019-02-19T20:12:11.813Z,36.73
2019-02-19T20:14:42.295Z,27.90
2019-02-19T20:17:12.993Z,35.47
2019-02-19T20:19:43.518Z,30.60
2019-02-19T20:22:14.232Z,28.80
2019-02-19T20:24:44.688Z,25.73
2019-02-19T20:27:15.424Z,23.80
2019-02-19T20:29:45.828Z,26.83
2019-02-19T20:32:17.563Z,25.73
2019-02-19T20:34:47.858Z,24.87
2019-02-19T20:37:19.404Z,23.77
2019-02-19T20:39:49.859Z,30.60
2019-02-19T20:42:20.596Z,23.20
2019-02-19T20:44:51.228Z,21.77
2019-02-19T20:47:21.931Z,26.43
2019-02-19T20:49:52.307Z,28.50
2019-02-19T20:52:22.663Z,35.27
2019-02-19T20:54:53.353Z,31.90
2019-02-19T20:57:23.815Z,27.93
2019-02-19T20:59:54.483Z,26.73
2019-02-19T21:02:25.218Z,31.33
2019-02-19T21:04:55.820Z,28.23
2019-02-19T21:07:26.335Z,28.10
2019-02-19T21:09:57.737Z,26.40
2019-02-19T21:12:28.087Z,29.20
2019-02-19T21:14:59.987Z,29.50
2019-02-19T21:17:30.563Z,32.17
2019-02-19T21:20:03.651Z,30.73
2019-02-19T21:22:34.027Z,31.13
2019-02-19T21:25:04.787Z,29.43
2019-02-19T21:27:35.355Z,29.20
2019-02-19T21:30:05.992Z,31.50
2019-02-19T21:32:40.131Z,33.10
2019-02-19T21:35:10.718Z,32.43
2019-02-19T21:37:41.188Z,30.73
2019-02-19T21:40:11.659Z,37.87
2019-02-19T21:42:41.954Z,29.23
2019-02-19T21:45:12.714Z,27.20
2019-02-19T21:47:43.291Z,27.27
2019-02-19T21:50:15.677Z,29.97
2019-02-19T21:52:46.348Z,29.00
2019-02-19T21:55:16.962Z,31.90
2019-02-19T21:57:47.520Z,31.80
2019-02-19T22:00:19.430Z,25.37
2019-02-19T22:02:51.614Z,21.77
2019-02-19T22:05:22.159Z,24.27
2019-02-19T22:07:52.726Z,26.30
2019-02-19T22:10:23.373Z,32.80
2019-02-19T22:12:53.839Z,31.83
2019-02-19T22:15:26.640Z,28.93
2019-02-19T22:17:57.092Z,30.67
2019-02-19T22:20:55.377Z,25.33
2019-02-19T22:23:25.700Z,30.97
2019-02-19T22:25:56.167Z,21.50
2019-02-19T22:28:26.655Z,26.30
2019-02-19T22:30:57.271Z,26.50
2019-02-19T22:33:27.689Z,32.33
2019-02-19T22:36:01.067Z,18.23
2019-02-19T22:38:31.537Z,29.73
2019-02-19T22:41:01.814Z,27.17
2019-02-19T22:43:32.240Z,27.50
2019-02-19T22:46:02.653Z,24.80
2019-02-19T22:48:33.254Z,25.93
2019-02-19T22:51:03.655Z,23.03
2019-02-19T22:53:49.883Z,21.83
2019-02-19T22:56:26.827Z,25.10
2019-02-19T22:58:57.305Z,25.37
2019-02-19T23:01:33.666Z,24.67
2019-02-19T23:04:04.351Z,27.40
2019-02-19T23:06:34.865Z,29.83
2019-02-19T23:09:07.687Z,23.80
2019-02-19T23:11:38.175Z,18.50
2019-02-19T23:14:10.272Z,26.47
2019-02-19T23:16:40.655Z,23.37
2019-02-19T23:19:12.659Z,25.87
2019-02-19T23:21:43.040Z,24.87
2019-02-19T23:24:13.604Z,17.73
2019-02-19T23:26:44.075Z,24.20
2019-02-19T23:29:14.685Z,24.40
2019-02-19T23:31:45.035Z,26.03
2019-02-19T23:34:17.027Z,28.77
2019-02-19T23:37:00.148Z,25.00
2019-02-19T23:39:32.371Z,24.27
2019-02-19T23:42:02.860Z,24.97
2019-02-19T23:44:34.180Z,28.37
2019-02-19T23:47:04.564Z,27.27
2019-02-19T23:49:35.206Z,29.67
2019-02-19T23:52:05.592Z,21.97
2019-02-19T23:54:36.219Z,24.87
2019-02-19T23:57:06.639Z,24.93
2019-02-19T23:59:41.322Z,23.57
